
<gpx xmlns="http://www.topografix.com/GPX/1/1" xmlns:gpxx="http://www.garmin.com/xmlschemas/GpxExtensions/v3" xmlns:xsi="http://www.w3.org/2001/XMLSchema-instance" version="1.1" creator="Adze - http://kobotsw.com/apps/adze" xsi:schemaLocation="http://www.topografix.com/GPX/1/1 http://www.topografix.com/GPX/1/1/gpx.xsd http://www.garmin.com/xmlschemas/GpxExtensions/v3 http://www.garmin.com/xmlschemas/GpxExtensionsv3.xsd">
    <metadata>
        <name>Untitled Document</name>
        <link href="http://www.garmin.com"></link>
        <time>2018-02-26T02:53:10.508Z</time>
    </metadata>
    <wpt lon="101.066511" lat="13.029568">
        <time>2016-06-10T06:34:18Z</time>
        <name>Phanhin Regent</name>
        <sym>Lodging</sym>
        <extensions>
            <gpxx:WaypointExtension xmlns:gpxx="http://www.garmin.com/xmlschemas/GpxExtensions/v3">
                <gpxx:DisplayMode>SymbolAndName</gpxx:DisplayMode>
            </gpxx:WaypointExtension>
        </extensions>
    </wpt>
    <wpt lon="101.040228" lat="12.956488">
        <name>Water stop</name>
    </wpt>
    <trk>
        <name>Saturday</name>
        <extensions>
            <gpxx:TrackExtension xmlns:gpxx="http://www.garmin.com/xmlschemas/GpxExtensions/v3">
                <gpxx:DisplayColor>Red</gpxx:DisplayColor>
            </gpxx:TrackExtension>
        </extensions>
        <trkseg>
            <trkpt lon="101.066889" lat="13.029684">
                <ele>116.800000</ele>
                <time>2016-04-30T23:48:49Z</time>
            </trkpt>
            <trkpt lon="101.066563" lat="13.028134">
                <ele>115.300000</ele>
                <time>2016-04-30T23:49:20Z</time>
            </trkpt>
            <trkpt lon="101.065837" lat="13.027383">
                <ele>116.600000</ele>
                <time>2016-04-30T23:49:45Z</time>
            </trkpt>
            <trkpt lon="101.065086" lat="13.027864">
                <ele>113.800000</ele>
                <time>2016-04-30T23:50:07Z</time>
            </trkpt>
            <trkpt lon="101.062011" lat="13.027838">
                <ele>104.000000</ele>
                <time>2016-04-30T23:50:58Z</time>
            </trkpt>
            <trkpt lon="101.060529" lat="13.028152">
                <ele>104.200000</ele>
                <time>2016-04-30T23:51:21Z</time>
            </trkpt>
            <trkpt lon="101.059381" lat="13.027980">
                <ele>98.800000</ele>
                <time>2016-04-30T23:51:35Z</time>
            </trkpt>
            <trkpt lon="101.058634" lat="13.027649">
                <ele>96.900000</ele>
                <time>2016-04-30T23:51:43Z</time>
            </trkpt>
            <trkpt lon="101.057018" lat="13.027150">
                <ele>96.700000</ele>
                <time>2016-04-30T23:52:02Z</time>
            </trkpt>
            <trkpt lon="101.059141" lat="13.022793">
                <ele>107.400000</ele>
                <time>2016-04-30T23:54:03Z</time>
            </trkpt>
            <trkpt lon="101.060060" lat="13.019594">
                <ele>132.900000</ele>
                <time>2016-04-30T23:55:47Z</time>
            </trkpt>
            <trkpt lon="101.060066" lat="13.019564">
                <ele>133.000000</ele>
                <time>2016-04-30T23:55:48Z</time>
            </trkpt>
            <trkpt lon="101.060548" lat="13.017745">
                <ele>129.400000</ele>
                <time>2016-04-30T23:56:52Z</time>
            </trkpt>
            <trkpt lon="101.061111" lat="13.016184">
                <ele>139.800000</ele>
                <time>2016-04-30T23:57:35Z</time>
            </trkpt>
            <trkpt lon="101.061228" lat="13.014587">
                <ele>130.900000</ele>
                <time>2016-04-30T23:58:13Z</time>
            </trkpt>
            <trkpt lon="101.060485" lat="13.013191">
                <ele>130.600000</ele>
                <time>2016-04-30T23:58:38Z</time>
            </trkpt>
            <trkpt lon="101.063160" lat="13.009697">
                <ele>142.500000</ele>
                <time>2016-05-01T00:00:56Z</time>
            </trkpt>
            <trkpt lon="101.063431" lat="13.009005">
                <ele>143.600000</ele>
                <time>2016-05-01T00:01:10Z</time>
            </trkpt>
            <trkpt lon="101.062106" lat="13.008057">
                <ele>146.500000</ele>
                <time>2016-05-01T00:01:50Z</time>
            </trkpt>
            <trkpt lon="101.061648" lat="13.007346">
                <ele>152.300000</ele>
                <time>2016-05-01T00:02:12Z</time>
            </trkpt>
            <trkpt lon="101.061378" lat="13.006259">
                <ele>159.200000</ele>
                <time>2016-05-01T00:02:36Z</time>
            </trkpt>
            <trkpt lon="101.061094" lat="13.004886">
                <ele>150.200000</ele>
                <time>2016-05-01T00:03:07Z</time>
            </trkpt>
            <trkpt lon="101.060277" lat="13.004477">
                <ele>151.800000</ele>
                <time>2016-05-01T00:03:29Z</time>
            </trkpt>
            <trkpt lon="101.059680" lat="13.004725">
                <ele>153.600000</ele>
                <time>2016-05-01T00:03:46Z</time>
            </trkpt>
            <trkpt lon="101.059586" lat="13.004765">
                <ele>153.700000</ele>
                <time>2016-05-01T00:03:49Z</time>
            </trkpt>
            <trkpt lon="101.058645" lat="13.004474">
                <ele>152.100000</ele>
                <time>2016-05-01T00:04:19Z</time>
            </trkpt>
            <trkpt lon="101.058919" lat="13.002959">
                <ele>152.100000</ele>
                <time>2016-05-01T00:05:05Z</time>
            </trkpt>
            <trkpt lon="101.058302" lat="13.002828">
                <ele>154.200000</ele>
                <time>2016-05-01T00:05:33Z</time>
            </trkpt>
            <trkpt lon="101.058122" lat="13.002272">
                <ele>152.000000</ele>
                <time>2016-05-01T00:08:49Z</time>
            </trkpt>
            <trkpt lon="101.057554" lat="13.002599">
                <ele>156.100000</ele>
                <time>2016-05-01T00:10:32Z</time>
            </trkpt>
            <trkpt lon="101.057387" lat="13.002113">
                <ele>155.500000</ele>
                <time>2016-05-01T00:11:22Z</time>
            </trkpt>
            <trkpt lon="101.057089" lat="13.002052">
                <ele>157.900000</ele>
                <time>2016-05-01T00:11:40Z</time>
            </trkpt>
            <trkpt lon="101.056066" lat="13.002202">
                <ele>158.700000</ele>
                <time>2016-05-01T00:12:25Z</time>
            </trkpt>
            <trkpt lon="101.054992" lat="12.996326">
                <ele>166.500000</ele>
                <time>2016-05-01T00:15:21Z</time>
            </trkpt>
            <trkpt lon="101.053902" lat="12.993511">
                <ele>172.500000</ele>
                <time>2016-05-01T00:16:40Z</time>
            </trkpt>
            <trkpt lon="101.053495" lat="12.993260">
                <ele>176.800000</ele>
                <time>2016-05-01T00:16:57Z</time>
            </trkpt>
            <trkpt lon="101.052245" lat="12.992662">
                <ele>179.900000</ele>
                <time>2016-05-01T00:18:07Z</time>
            </trkpt>
            <trkpt lon="101.050984" lat="12.991953">
                <ele>188.800000</ele>
                <time>2016-05-01T00:18:42Z</time>
            </trkpt>
            <trkpt lon="101.050418" lat="12.992152">
                <ele>183.300000</ele>
                <time>2016-05-01T00:19:18Z</time>
            </trkpt>
            <trkpt lon="101.049918" lat="12.991751">
                <ele>188.500000</ele>
                <time>2016-05-01T00:20:17Z</time>
            </trkpt>
            <trkpt lon="101.047938" lat="12.990644">
                <ele>187.700000</ele>
                <time>2016-05-01T00:26:51Z</time>
            </trkpt>
            <trkpt lon="101.047207" lat="12.990794">
                <ele>184.000000</ele>
                <time>2016-05-01T00:27:57Z</time>
            </trkpt>
            <trkpt lon="101.046770" lat="12.990204">
                <ele>180.500000</ele>
                <time>2016-05-01T00:37:03Z</time>
            </trkpt>
            <trkpt lon="101.045447" lat="12.989592">
                <ele>176.100000</ele>
                <time>2016-05-01T00:38:52Z</time>
            </trkpt>
            <trkpt lon="101.045103" lat="12.989493">
                <ele>174.200000</ele>
                <time>2016-05-01T00:39:06Z</time>
            </trkpt>
            <trkpt lon="101.043645" lat="12.990754">
                <ele>184.900000</ele>
                <time>2016-05-01T00:41:02Z</time>
            </trkpt>
            <trkpt lon="101.043039" lat="12.990733">
                <ele>186.000000</ele>
                <time>2016-05-01T00:41:33Z</time>
            </trkpt>
            <trkpt lon="101.042777" lat="12.990578">
                <ele>185.500000</ele>
                <time>2016-05-01T00:41:44Z</time>
            </trkpt>
            <trkpt lon="101.041748" lat="12.990253">
                <ele>185.400000</ele>
                <time>2016-05-01T00:42:11Z</time>
            </trkpt>
            <trkpt lon="101.040925" lat="12.989525">
                <ele>184.100000</ele>
                <time>2016-05-01T00:43:13Z</time>
            </trkpt>
            <trkpt lon="101.040622" lat="12.988921">
                <ele>181.200000</ele>
                <time>2016-05-01T00:45:36Z</time>
            </trkpt>
            <trkpt lon="101.039737" lat="12.988475">
                <ele>180.300000</ele>
                <time>2016-05-01T00:46:24Z</time>
            </trkpt>
            <trkpt lon="101.038737" lat="12.988188">
                <ele>172.900000</ele>
                <time>2016-05-01T00:47:05Z</time>
            </trkpt>
            <trkpt lon="101.037433" lat="12.987765">
                <ele>170.700000</ele>
                <time>2016-05-01T00:47:45Z</time>
            </trkpt>
            <trkpt lon="101.035997" lat="12.985607">
                <ele>175.400000</ele>
                <time>2016-05-01T00:51:34Z</time>
            </trkpt>
            <trkpt lon="101.033820" lat="12.985026">
                <ele>175.900000</ele>
                <time>2016-05-01T00:52:31Z</time>
            </trkpt>
            <trkpt lon="101.032905" lat="12.984592">
                <ele>174.000000</ele>
                <time>2016-05-01T00:53:52Z</time>
            </trkpt>
            <trkpt lon="101.032589" lat="12.984640">
                <ele>173.200000</ele>
                <time>2016-05-01T00:54:04Z</time>
            </trkpt>
            <trkpt lon="101.032042" lat="12.984541">
                <ele>170.400000</ele>
                <time>2016-05-01T00:54:16Z</time>
            </trkpt>
            <trkpt lon="101.031292" lat="12.983533">
                <ele>163.100000</ele>
                <time>2016-05-01T00:54:45Z</time>
            </trkpt>
            <trkpt lon="101.031229" lat="12.982351">
                <ele>161.800000</ele>
                <time>2016-05-01T01:01:21Z</time>
            </trkpt>
            <trkpt lon="101.031210" lat="12.982329">
                <ele>161.700000</ele>
                <time>2016-05-01T01:01:22Z</time>
            </trkpt>
            <trkpt lon="101.030721" lat="12.982059">
                <ele>158.900000</ele>
                <time>2016-05-01T01:01:39Z</time>
            </trkpt>
            <trkpt lon="101.031167" lat="12.978871">
                <ele>170.100000</ele>
                <time>2016-05-01T01:06:06Z</time>
            </trkpt>
            <trkpt lon="101.029229" lat="12.977685">
                <ele>163.100000</ele>
                <time>2016-05-01T01:06:55Z</time>
            </trkpt>
            <trkpt lon="101.027213" lat="12.975440">
                <ele>182.100000</ele>
                <time>2016-05-01T01:08:58Z</time>
            </trkpt>
            <trkpt lon="101.025769" lat="12.975122">
                <ele>179.800000</ele>
                <time>2016-05-01T01:10:40Z</time>
            </trkpt>
            <trkpt lon="101.024997" lat="12.974739">
                <ele>176.000000</ele>
                <time>2016-05-01T01:10:56Z</time>
            </trkpt>
            <trkpt lon="101.024742" lat="12.974291">
                <ele>172.500000</ele>
                <time>2016-05-01T01:11:06Z</time>
            </trkpt>
            <trkpt lon="101.024590" lat="12.973725">
                <ele>168.200000</ele>
                <time>2016-05-01T01:11:19Z</time>
            </trkpt>
            <trkpt lon="101.023999" lat="12.973188">
                <ele>168.900000</ele>
                <time>2016-05-01T01:11:35Z</time>
            </trkpt>
            <trkpt lon="101.023799" lat="12.973126">
                <ele>167.300000</ele>
                <time>2016-05-01T01:11:39Z</time>
            </trkpt>
            <trkpt lon="101.023361" lat="12.972609">
                <ele>167.200000</ele>
                <time>2016-05-01T01:11:51Z</time>
            </trkpt>
            <trkpt lon="101.022722" lat="12.971723">
                <ele>163.300000</ele>
                <time>2016-05-01T01:12:12Z</time>
            </trkpt>
            <trkpt lon="101.021639" lat="12.970981">
                <ele>163.800000</ele>
                <time>2016-05-01T01:12:33Z</time>
            </trkpt>
            <trkpt lon="101.020762" lat="12.969949">
                <ele>160.300000</ele>
                <time>2016-05-01T01:12:54Z</time>
            </trkpt>
            <trkpt lon="101.020313" lat="12.968724">
                <ele>145.100000</ele>
                <time>2016-05-01T01:13:11Z</time>
            </trkpt>
            <trkpt lon="101.019660" lat="12.968459">
                <ele>143.400000</ele>
                <time>2016-05-01T01:13:23Z</time>
            </trkpt>
            <trkpt lon="101.019503" lat="12.968330">
                <ele>141.900000</ele>
                <time>2016-05-01T01:13:28Z</time>
            </trkpt>
            <trkpt lon="101.019245" lat="12.967983">
                <ele>137.500000</ele>
                <time>2016-05-01T01:13:42Z</time>
            </trkpt>
            <trkpt lon="101.019565" lat="12.967477">
                <ele>138.400000</ele>
                <time>2016-05-01T01:28:25Z</time>
            </trkpt>
            <trkpt lon="101.020229" lat="12.967411">
                <ele>145.000000</ele>
                <time>2016-05-01T01:29:04Z</time>
            </trkpt>
            <trkpt lon="101.020950" lat="12.966570">
                <ele>159.100000</ele>
                <time>2016-05-01T01:30:23Z</time>
            </trkpt>
            <trkpt lon="101.020903" lat="12.966390">
                <ele>158.300000</ele>
                <time>2016-05-01T01:30:35Z</time>
            </trkpt>
            <trkpt lon="101.020650" lat="12.965278">
                <ele>152.300000</ele>
                <time>2016-05-01T01:31:26Z</time>
            </trkpt>
            <trkpt lon="101.021216" lat="12.964373">
                <ele>166.100000</ele>
                <time>2016-05-01T01:32:05Z</time>
            </trkpt>
            <trkpt lon="101.020898" lat="12.964086">
                <ele>166.600000</ele>
                <time>2016-05-01T01:32:19Z</time>
            </trkpt>
            <trkpt lon="101.021224" lat="12.963705">
                <ele>174.200000</ele>
                <time>2016-05-01T01:32:44Z</time>
            </trkpt>
            <trkpt lon="101.021758" lat="12.963450">
                <ele>174.100000</ele>
                <time>2016-05-01T01:33:07Z</time>
            </trkpt>
            <trkpt lon="101.022167" lat="12.963183">
                <ele>173.500000</ele>
                <time>2016-05-01T01:33:17Z</time>
            </trkpt>
            <trkpt lon="101.022726" lat="12.963214">
                <ele>170.200000</ele>
                <time>2016-05-01T01:33:29Z</time>
            </trkpt>
            <trkpt lon="101.022974" lat="12.964134">
                <ele>173.500000</ele>
                <time>2016-05-01T01:34:15Z</time>
            </trkpt>
            <trkpt lon="101.024019" lat="12.964015">
                <ele>176.300000</ele>
                <time>2016-05-01T01:35:02Z</time>
            </trkpt>
            <trkpt lon="101.024954" lat="12.963574">
                <ele>173.300000</ele>
                <time>2016-05-01T01:35:37Z</time>
            </trkpt>
            <trkpt lon="101.024942" lat="12.963141">
                <ele>169.100000</ele>
                <time>2016-05-01T01:40:40Z</time>
            </trkpt>
            <trkpt lon="101.024371" lat="12.962744">
                <ele>164.600000</ele>
                <time>2016-05-01T01:40:57Z</time>
            </trkpt>
            <trkpt lon="101.024870" lat="12.961615">
                <ele>159.700000</ele>
                <time>2016-05-01T01:41:21Z</time>
            </trkpt>
            <trkpt lon="101.025178" lat="12.961181">
                <ele>160.900000</ele>
                <time>2016-05-01T01:41:31Z</time>
            </trkpt>
            <trkpt lon="101.026251" lat="12.962134">
                <ele>161.400000</ele>
                <time>2016-05-01T01:42:25Z</time>
            </trkpt>
            <trkpt lon="101.026658" lat="12.962230">
                <ele>163.400000</ele>
                <time>2016-05-01T01:42:34Z</time>
            </trkpt>
            <trkpt lon="101.027014" lat="12.962738">
                <ele>166.400000</ele>
                <time>2016-05-01T01:42:51Z</time>
            </trkpt>
            <trkpt lon="101.027756" lat="12.962752">
                <ele>170.100000</ele>
                <time>2016-05-01T01:43:25Z</time>
            </trkpt>
            <trkpt lon="101.027779" lat="12.962461">
                <ele>170.100000</ele>
                <time>2016-05-01T01:43:39Z</time>
            </trkpt>
            <trkpt lon="101.027944" lat="12.961540">
                <ele>168.400000</ele>
                <time>2016-05-01T01:44:01Z</time>
            </trkpt>
            <trkpt lon="101.028022" lat="12.961452">
                <ele>168.100000</ele>
                <time>2016-05-01T01:44:04Z</time>
            </trkpt>
            <trkpt lon="101.028993" lat="12.961115">
                <ele>164.700000</ele>
                <time>2016-05-01T01:44:25Z</time>
            </trkpt>
            <trkpt lon="101.030600" lat="12.962117">
                <ele>175.800000</ele>
                <time>2016-05-01T01:46:29Z</time>
            </trkpt>
            <trkpt lon="101.030730" lat="12.963462">
                <ele>188.200000</ele>
                <time>2016-05-01T01:47:24Z</time>
            </trkpt>
            <trkpt lon="101.030745" lat="12.963496">
                <ele>188.300000</ele>
                <time>2016-05-01T01:48:29Z</time>
            </trkpt>
            <trkpt lon="101.031234" lat="12.963549">
                <ele>184.200000</ele>
                <time>2016-05-01T01:48:42Z</time>
            </trkpt>
            <trkpt lon="101.031717" lat="12.963182">
                <ele>177.800000</ele>
                <time>2016-05-01T01:48:55Z</time>
            </trkpt>
            <trkpt lon="101.032323" lat="12.962705">
                <ele>172.400000</ele>
                <time>2016-05-01T01:49:10Z</time>
            </trkpt>
            <trkpt lon="101.032835" lat="12.961549">
                <ele>174.100000</ele>
                <time>2016-05-01T01:49:46Z</time>
            </trkpt>
            <trkpt lon="101.033786" lat="12.960948">
                <ele>170.800000</ele>
                <time>2016-05-01T01:50:07Z</time>
            </trkpt>
            <trkpt lon="101.034489" lat="12.959918">
                <ele>172.300000</ele>
                <time>2016-05-01T01:50:40Z</time>
            </trkpt>
            <trkpt lon="101.034577" lat="12.959863">
                <ele>172.000000</ele>
                <time>2016-05-01T01:53:57Z</time>
            </trkpt>
            <trkpt lon="101.035282" lat="12.960499">
                <ele>160.200000</ele>
                <time>2016-05-01T01:54:33Z</time>
            </trkpt>
            <trkpt lon="101.035762" lat="12.960457">
                <ele>161.100000</ele>
                <time>2016-05-01T01:54:58Z</time>
            </trkpt>
            <trkpt lon="101.036272" lat="12.960997">
                <ele>164.800000</ele>
                <time>2016-05-01T01:56:01Z</time>
            </trkpt>
            <trkpt lon="101.035894" lat="12.962192">
                <ele>168.300000</ele>
                <time>2016-05-01T01:57:21Z</time>
            </trkpt>
            <trkpt lon="101.036021" lat="12.962624">
                <ele>169.800000</ele>
                <time>2016-05-01T01:57:44Z</time>
            </trkpt>
            <trkpt lon="101.036336" lat="12.962553">
                <ele>170.700000</ele>
                <time>2016-05-01T01:58:11Z</time>
            </trkpt>
            <trkpt lon="101.036568" lat="12.962317">
                <ele>171.800000</ele>
                <time>2016-05-01T01:58:22Z</time>
            </trkpt>
            <trkpt lon="101.036555" lat="12.961793">
                <ele>168.900000</ele>
                <time>2016-05-01T01:58:36Z</time>
            </trkpt>
            <trkpt lon="101.036982" lat="12.960866">
                <ele>168.500000</ele>
                <time>2016-05-01T01:58:50Z</time>
            </trkpt>
            <trkpt lon="101.037784" lat="12.959741">
                <ele>164.400000</ele>
                <time>2016-05-01T01:59:10Z</time>
            </trkpt>
            <trkpt lon="101.038373" lat="12.959363">
                <ele>160.500000</ele>
                <time>2016-05-01T01:59:26Z</time>
            </trkpt>
            <trkpt lon="101.039138" lat="12.959311">
                <ele>164.100000</ele>
                <time>2016-05-01T01:59:50Z</time>
            </trkpt>
            <trkpt lon="101.038846" lat="12.959118">
                <ele>158.500000</ele>
                <time>2016-05-01T02:00:00Z</time>
            </trkpt>
            <trkpt lon="101.038915" lat="12.958865">
                <ele>156.300000</ele>
                <time>2016-05-01T02:00:05Z</time>
            </trkpt>
            <trkpt lon="101.039604" lat="12.957421">
                <ele>153.800000</ele>
                <time>2016-05-01T02:00:42Z</time>
            </trkpt>
            <trkpt lon="101.040054" lat="12.957167">
                <ele>154.800000</ele>
                <time>2016-05-01T02:00:51Z</time>
            </trkpt>
            <trkpt lon="101.040208" lat="12.956584">
                <ele>154.000000</ele>
                <time>2016-05-01T02:11:29Z</time>
            </trkpt>
            <trkpt lon="101.040186" lat="12.956544">
                <ele>153.800000</ele>
                <time>2016-05-01T02:16:33Z</time>
            </trkpt>
            <trkpt lon="101.039986" lat="12.957203">
                <ele>154.700000</ele>
                <time>2016-05-01T02:17:03Z</time>
            </trkpt>
            <trkpt lon="101.039535" lat="12.957470">
                <ele>153.600000</ele>
                <time>2016-05-01T02:17:21Z</time>
            </trkpt>
            <trkpt lon="101.039665" lat="12.957794">
                <ele>156.100000</ele>
                <time>2016-05-01T02:17:37Z</time>
            </trkpt>
            <trkpt lon="101.039657" lat="12.957825">
                <ele>156.100000</ele>
                <time>2016-05-01T02:17:38Z</time>
            </trkpt>
            <trkpt lon="101.039569" lat="12.958048">
                <ele>157.000000</ele>
                <time>2016-05-01T02:17:44Z</time>
            </trkpt>
            <trkpt lon="101.039466" lat="12.958186">
                <ele>157.200000</ele>
                <time>2016-05-01T02:17:48Z</time>
            </trkpt>
            <trkpt lon="101.039404" lat="12.959005">
                <ele>163.700000</ele>
                <time>2016-05-01T02:18:08Z</time>
            </trkpt>
            <trkpt lon="101.039877" lat="12.959209">
                <ele>170.600000</ele>
                <time>2016-05-01T02:19:17Z</time>
            </trkpt>
            <trkpt lon="101.040303" lat="12.959080">
                <ele>173.000000</ele>
                <time>2016-05-01T02:19:36Z</time>
            </trkpt>
            <trkpt lon="101.040839" lat="12.958827">
                <ele>172.900000</ele>
                <time>2016-05-01T02:19:53Z</time>
            </trkpt>
            <trkpt lon="101.041261" lat="12.958690">
                <ele>173.400000</ele>
                <time>2016-05-01T02:20:03Z</time>
            </trkpt>
            <trkpt lon="101.042699" lat="12.959015">
                <ele>173.200000</ele>
                <time>2016-05-01T02:21:18Z</time>
            </trkpt>
            <trkpt lon="101.043238" lat="12.959152">
                <ele>168.700000</ele>
                <time>2016-05-01T02:21:29Z</time>
            </trkpt>
            <trkpt lon="101.043807" lat="12.960597">
                <ele>168.300000</ele>
                <time>2016-05-01T02:23:08Z</time>
            </trkpt>
            <trkpt lon="101.045711" lat="12.961769">
                <ele>173.500000</ele>
                <time>2016-05-01T02:24:11Z</time>
            </trkpt>
            <trkpt lon="101.045962" lat="12.962778">
                <ele>177.000000</ele>
                <time>2016-05-01T02:24:31Z</time>
            </trkpt>
            <trkpt lon="101.047065" lat="12.963820">
                <ele>171.200000</ele>
                <time>2016-05-01T02:25:03Z</time>
            </trkpt>
            <trkpt lon="101.047038" lat="12.965308">
                <ele>169.900000</ele>
                <time>2016-05-01T02:26:33Z</time>
            </trkpt>
            <trkpt lon="101.047651" lat="12.966374">
                <ele>159.900000</ele>
                <time>2016-05-01T02:26:49Z</time>
            </trkpt>
            <trkpt lon="101.048401" lat="12.966980">
                <ele>152.800000</ele>
                <time>2016-05-01T02:27:05Z</time>
            </trkpt>
            <trkpt lon="101.048247" lat="12.968684">
                <ele>146.200000</ele>
                <time>2016-05-01T02:27:30Z</time>
            </trkpt>
            <trkpt lon="101.048490" lat="12.969438">
                <ele>143.400000</ele>
                <time>2016-05-01T02:27:39Z</time>
            </trkpt>
            <trkpt lon="101.048083" lat="12.969815">
                <ele>142.100000</ele>
                <time>2016-05-01T02:28:37Z</time>
            </trkpt>
            <trkpt lon="101.048969" lat="12.970277">
                <ele>139.300000</ele>
                <time>2016-05-01T02:29:12Z</time>
            </trkpt>
            <trkpt lon="101.049239" lat="12.969914">
                <ele>139.800000</ele>
                <time>2016-05-01T02:29:31Z</time>
            </trkpt>
            <trkpt lon="101.049865" lat="12.970147">
                <ele>137.400000</ele>
                <time>2016-05-01T02:29:55Z</time>
            </trkpt>
            <trkpt lon="101.050168" lat="12.970314">
                <ele>136.100000</ele>
                <time>2016-05-01T02:30:01Z</time>
            </trkpt>
            <trkpt lon="101.050489" lat="12.970508">
                <ele>134.800000</ele>
                <time>2016-05-01T02:30:08Z</time>
            </trkpt>
            <trkpt lon="101.050843" lat="12.970067">
                <ele>135.800000</ele>
                <time>2016-05-01T02:30:30Z</time>
            </trkpt>
            <trkpt lon="101.051255" lat="12.969656">
                <ele>136.800000</ele>
                <time>2016-05-01T02:30:42Z</time>
            </trkpt>
            <trkpt lon="101.051447" lat="12.969574">
                <ele>136.300000</ele>
                <time>2016-05-01T02:30:49Z</time>
            </trkpt>
            <trkpt lon="101.051756" lat="12.969572">
                <ele>135.200000</ele>
                <time>2016-05-01T02:35:36Z</time>
            </trkpt>
            <trkpt lon="101.052211" lat="12.969996">
                <ele>131.100000</ele>
                <time>2016-05-01T02:35:53Z</time>
            </trkpt>
            <trkpt lon="101.051721" lat="12.971173">
                <ele>130.100000</ele>
                <time>2016-05-01T02:37:09Z</time>
            </trkpt>
            <trkpt lon="101.051687" lat="12.972341">
                <ele>133.400000</ele>
                <time>2016-05-01T02:37:54Z</time>
            </trkpt>
            <trkpt lon="101.052067" lat="12.972920">
                <ele>138.000000</ele>
                <time>2016-05-01T02:38:22Z</time>
            </trkpt>
            <trkpt lon="101.052615" lat="12.974362">
                <ele>141.800000</ele>
                <time>2016-05-01T02:39:15Z</time>
            </trkpt>
            <trkpt lon="101.052157" lat="12.974497">
                <ele>141.100000</ele>
                <time>2016-05-01T02:39:37Z</time>
            </trkpt>
            <trkpt lon="101.051909" lat="12.974567">
                <ele>140.800000</ele>
                <time>2016-05-01T02:39:45Z</time>
            </trkpt>
            <trkpt lon="101.052093" lat="12.975524">
                <ele>143.500000</ele>
                <time>2016-05-01T02:41:10Z</time>
            </trkpt>
            <trkpt lon="101.052473" lat="12.978519">
                <ele>158.800000</ele>
                <time>2016-05-01T02:44:41Z</time>
            </trkpt>
            <trkpt lon="101.052146" lat="12.979308">
                <ele>165.400000</ele>
                <time>2016-05-01T02:45:46Z</time>
            </trkpt>
            <trkpt lon="101.051974" lat="12.979078">
                <ele>162.600000</ele>
                <time>2016-05-01T02:54:43Z</time>
            </trkpt>
            <trkpt lon="101.051585" lat="12.978874">
                <ele>160.900000</ele>
                <time>2016-05-01T02:54:55Z</time>
            </trkpt>
            <trkpt lon="101.050401" lat="12.979003">
                <ele>164.600000</ele>
                <time>2016-05-01T02:58:09Z</time>
            </trkpt>
            <trkpt lon="101.048524" lat="12.980210">
                <ele>172.400000</ele>
                <time>2016-05-01T03:00:06Z</time>
            </trkpt>
            <trkpt lon="101.047722" lat="12.980018">
                <ele>166.100000</ele>
                <time>2016-05-01T03:00:36Z</time>
            </trkpt>
            <trkpt lon="101.046651" lat="12.980288">
                <ele>159.400000</ele>
                <time>2016-05-01T03:00:59Z</time>
            </trkpt>
            <trkpt lon="101.046374" lat="12.980033">
                <ele>155.200000</ele>
                <time>2016-05-01T03:02:10Z</time>
            </trkpt>
            <trkpt lon="101.045937" lat="12.979589">
                <ele>151.000000</ele>
                <time>2016-05-01T03:02:21Z</time>
            </trkpt>
            <trkpt lon="101.044661" lat="12.980125">
                <ele>153.700000</ele>
                <time>2016-05-01T03:02:54Z</time>
            </trkpt>
            <trkpt lon="101.043645" lat="12.979951">
                <ele>151.800000</ele>
                <time>2016-05-01T03:03:17Z</time>
            </trkpt>
            <trkpt lon="101.042826" lat="12.980247">
                <ele>152.100000</ele>
                <time>2016-05-01T03:03:44Z</time>
            </trkpt>
            <trkpt lon="101.042101" lat="12.980146">
                <ele>151.700000</ele>
                <time>2016-05-01T03:04:10Z</time>
            </trkpt>
            <trkpt lon="101.040659" lat="12.980161">
                <ele>145.300000</ele>
                <time>2016-05-01T03:04:45Z</time>
            </trkpt>
            <trkpt lon="101.039595" lat="12.981350">
                <ele>153.200000</ele>
                <time>2016-05-01T03:05:32Z</time>
            </trkpt>
            <trkpt lon="101.039320" lat="12.981421">
                <ele>152.500000</ele>
                <time>2016-05-01T03:13:16Z</time>
            </trkpt>
            <trkpt lon="101.039528" lat="12.983031">
                <ele>154.500000</ele>
                <time>2016-05-01T03:14:23Z</time>
            </trkpt>
            <trkpt lon="101.039724" lat="12.983740">
                <ele>157.000000</ele>
                <time>2016-05-01T03:14:51Z</time>
            </trkpt>
            <trkpt lon="101.040370" lat="12.984513">
                <ele>160.700000</ele>
                <time>2016-05-01T03:15:33Z</time>
            </trkpt>
            <trkpt lon="101.040391" lat="12.984552">
                <ele>160.800000</ele>
                <time>2016-05-01T03:15:35Z</time>
            </trkpt>
            <trkpt lon="101.040426" lat="12.985413">
                <ele>166.900000</ele>
                <time>2016-05-01T03:16:13Z</time>
            </trkpt>
            <trkpt lon="101.040771" lat="12.986763">
                <ele>173.500000</ele>
                <time>2016-05-01T03:17:40Z</time>
            </trkpt>
            <trkpt lon="101.040587" lat="12.988047">
                <ele>180.900000</ele>
                <time>2016-05-01T03:25:35Z</time>
            </trkpt>
            <trkpt lon="101.041128" lat="12.989872">
                <ele>185.600000</ele>
                <time>2016-05-01T03:26:52Z</time>
            </trkpt>
            <trkpt lon="101.040803" lat="12.990504">
                <ele>195.000000</ele>
                <time>2016-05-01T03:28:00Z</time>
            </trkpt>
            <trkpt lon="101.040279" lat="12.991631">
                <ele>195.500000</ele>
                <time>2016-05-01T03:29:29Z</time>
            </trkpt>
            <trkpt lon="101.040343" lat="12.992310">
                <ele>198.400000</ele>
                <time>2016-05-01T03:31:36Z</time>
            </trkpt>
            <trkpt lon="101.040918" lat="12.993378">
                <ele>218.000000</ele>
                <time>2016-05-01T03:33:39Z</time>
            </trkpt>
            <trkpt lon="101.040905" lat="12.994246">
                <ele>232.300000</ele>
                <time>2016-05-01T03:46:06Z</time>
            </trkpt>
            <trkpt lon="101.041401" lat="12.994553">
                <ele>244.300000</ele>
                <time>2016-05-01T03:46:58Z</time>
            </trkpt>
            <trkpt lon="101.042278" lat="12.995285">
                <ele>255.000000</ele>
                <time>2016-05-01T03:50:31Z</time>
            </trkpt>
            <trkpt lon="101.042024" lat="12.996219">
                <ele>254.700000</ele>
                <time>2016-05-01T03:52:24Z</time>
            </trkpt>
            <trkpt lon="101.041618" lat="12.996498">
                <ele>249.700000</ele>
                <time>2016-05-01T03:52:58Z</time>
            </trkpt>
            <trkpt lon="101.041434" lat="12.997629">
                <ele>262.800000</ele>
                <time>2016-05-01T03:55:03Z</time>
            </trkpt>
            <trkpt lon="101.041113" lat="12.997904">
                <ele>266.900000</ele>
                <time>2016-05-01T03:55:52Z</time>
            </trkpt>
            <trkpt lon="101.041266" lat="12.998436">
                <ele>277.500000</ele>
                <time>2016-05-01T03:59:48Z</time>
            </trkpt>
            <trkpt lon="101.041285" lat="12.998747">
                <ele>283.600000</ele>
                <time>2016-05-01T04:00:07Z</time>
            </trkpt>
            <trkpt lon="101.041707" lat="12.999651">
                <ele>271.200000</ele>
                <time>2016-05-01T04:02:11Z</time>
            </trkpt>
            <trkpt lon="101.042054" lat="12.999953">
                <ele>259.100000</ele>
                <time>2016-05-01T04:02:30Z</time>
            </trkpt>
            <trkpt lon="101.042168" lat="13.000825">
                <ele>252.100000</ele>
                <time>2016-05-01T04:03:37Z</time>
            </trkpt>
            <trkpt lon="101.042382" lat="13.001710">
                <ele>245.900000</ele>
                <time>2016-05-01T04:04:07Z</time>
            </trkpt>
            <trkpt lon="101.043276" lat="13.001992">
                <ele>238.300000</ele>
                <time>2016-05-01T04:05:47Z</time>
            </trkpt>
            <trkpt lon="101.041677" lat="13.002944">
                <ele>238.500000</ele>
                <time>2016-05-01T04:13:43Z</time>
            </trkpt>
            <trkpt lon="101.041275" lat="13.005108">
                <ele>218.900000</ele>
                <time>2016-05-01T04:15:09Z</time>
            </trkpt>
            <trkpt lon="101.040860" lat="13.005500">
                <ele>214.100000</ele>
                <time>2016-05-01T04:17:36Z</time>
            </trkpt>
            <trkpt lon="101.040332" lat="13.005465">
                <ele>213.700000</ele>
                <time>2016-05-01T04:18:02Z</time>
            </trkpt>
            <trkpt lon="101.040272" lat="13.005512">
                <ele>213.300000</ele>
                <time>2016-05-01T04:18:05Z</time>
            </trkpt>
            <trkpt lon="101.039981" lat="13.005713">
                <ele>210.600000</ele>
                <time>2016-05-01T04:18:16Z</time>
            </trkpt>
            <trkpt lon="101.039636" lat="13.006485">
                <ele>201.300000</ele>
                <time>2016-05-01T04:18:46Z</time>
            </trkpt>
            <trkpt lon="101.039224" lat="13.007128">
                <ele>194.200000</ele>
                <time>2016-05-01T04:19:08Z</time>
            </trkpt>
            <trkpt lon="101.037254" lat="13.007686">
                <ele>161.400000</ele>
                <time>2016-05-01T04:20:17Z</time>
            </trkpt>
            <trkpt lon="101.036974" lat="13.007542">
                <ele>157.400000</ele>
                <time>2016-05-01T04:20:29Z</time>
            </trkpt>
            <trkpt lon="101.036840" lat="13.006969">
                <ele>152.900000</ele>
                <time>2016-05-01T04:22:08Z</time>
            </trkpt>
            <trkpt lon="101.037821" lat="13.005880">
                <ele>164.700000</ele>
                <time>2016-05-01T04:28:44Z</time>
            </trkpt>
            <trkpt lon="101.037550" lat="13.005444">
                <ele>161.100000</ele>
                <time>2016-05-01T04:29:02Z</time>
            </trkpt>
            <trkpt lon="101.036917" lat="13.004148">
                <ele>164.700000</ele>
                <time>2016-05-01T04:29:47Z</time>
            </trkpt>
            <trkpt lon="101.033123" lat="13.002862">
                <ele>150.800000</ele>
                <time>2016-05-01T04:31:43Z</time>
            </trkpt>
            <trkpt lon="101.032089" lat="13.005370">
                <ele>134.200000</ele>
                <time>2016-05-01T04:34:59Z</time>
            </trkpt>
            <trkpt lon="101.031983" lat="13.005618">
                <ele>130.100000</ele>
                <time>2016-05-01T04:35:04Z</time>
            </trkpt>
            <trkpt lon="101.031328" lat="13.007493">
                <ele>109.200000</ele>
                <time>2016-05-01T04:35:40Z</time>
            </trkpt>
            <trkpt lon="101.030280" lat="13.008412">
                <ele>95.900000</ele>
                <time>2016-05-01T04:36:04Z</time>
            </trkpt>
            <trkpt lon="101.032410" lat="13.012998">
                <ele>94.200000</ele>
                <time>2016-05-01T04:37:54Z</time>
            </trkpt>
            <trkpt lon="101.034948" lat="13.013744">
                <ele>99.500000</ele>
                <time>2016-05-01T04:39:16Z</time>
            </trkpt>
            <trkpt lon="101.036086" lat="13.013429">
                <ele>102.900000</ele>
                <time>2016-05-01T04:39:54Z</time>
            </trkpt>
            <trkpt lon="101.037477" lat="13.013499">
                <ele>107.000000</ele>
                <time>2016-05-01T04:40:44Z</time>
            </trkpt>
            <trkpt lon="101.039340" lat="13.013042">
                <ele>115.300000</ele>
                <time>2016-05-01T04:41:56Z</time>
            </trkpt>
            <trkpt lon="101.040667" lat="13.012164">
                <ele>124.200000</ele>
                <time>2016-05-01T04:42:57Z</time>
            </trkpt>
            <trkpt lon="101.041534" lat="13.011777">
                <ele>129.400000</ele>
                <time>2016-05-01T04:43:32Z</time>
            </trkpt>
            <trkpt lon="101.041921" lat="13.011785">
                <ele>130.900000</ele>
                <time>2016-05-01T04:43:47Z</time>
            </trkpt>
            <trkpt lon="101.042943" lat="13.012849">
                <ele>133.200000</ele>
                <time>2016-05-01T04:44:39Z</time>
            </trkpt>
            <trkpt lon="101.043182" lat="13.013128">
                <ele>134.200000</ele>
                <time>2016-05-01T04:44:51Z</time>
            </trkpt>
            <trkpt lon="101.043638" lat="13.013696">
                <ele>133.900000</ele>
                <time>2016-05-01T04:45:11Z</time>
            </trkpt>
            <trkpt lon="101.044134" lat="13.014190">
                <ele>135.500000</ele>
                <time>2016-05-01T04:45:29Z</time>
            </trkpt>
            <trkpt lon="101.045374" lat="13.014317">
                <ele>138.800000</ele>
                <time>2016-05-01T04:49:16Z</time>
            </trkpt>
            <trkpt lon="101.046616" lat="13.014880">
                <ele>137.900000</ele>
                <time>2016-05-01T04:49:47Z</time>
            </trkpt>
            <trkpt lon="101.047415" lat="13.014876">
                <ele>139.800000</ele>
                <time>2016-05-01T04:50:05Z</time>
            </trkpt>
            <trkpt lon="101.047771" lat="13.014838">
                <ele>140.600000</ele>
                <time>2016-05-01T04:50:11Z</time>
            </trkpt>
            <trkpt lon="101.048987" lat="13.015129">
                <ele>137.300000</ele>
                <time>2016-05-01T04:50:30Z</time>
            </trkpt>
            <trkpt lon="101.054280" lat="13.016993">
                <ele>140.300000</ele>
                <time>2016-05-01T04:52:04Z</time>
            </trkpt>
            <trkpt lon="101.055330" lat="13.017052">
                <ele>139.100000</ele>
                <time>2016-05-01T04:52:24Z</time>
            </trkpt>
            <trkpt lon="101.055842" lat="13.019174">
                <ele>120.500000</ele>
                <time>2016-05-01T04:53:05Z</time>
            </trkpt>
            <trkpt lon="101.054862" lat="13.019940">
                <ele>116.500000</ele>
                <time>2016-05-01T04:53:35Z</time>
            </trkpt>
            <trkpt lon="101.055168" lat="13.021257">
                <ele>115.400000</ele>
                <time>2016-05-01T04:54:18Z</time>
            </trkpt>
            <trkpt lon="101.054901" lat="13.021353">
                <ele>114.600000</ele>
                <time>2016-05-01T04:54:30Z</time>
            </trkpt>
            <trkpt lon="101.054893" lat="13.022908">
                <ele>113.400000</ele>
                <time>2016-05-01T04:55:15Z</time>
            </trkpt>
            <trkpt lon="101.054777" lat="13.024053">
                <ele>109.400000</ele>
                <time>2016-05-01T04:55:38Z</time>
            </trkpt>
            <trkpt lon="101.054531" lat="13.025419">
                <ele>104.800000</ele>
                <time>2016-05-01T04:56:16Z</time>
            </trkpt>
            <trkpt lon="101.053459" lat="13.026894">
                <ele>94.900000</ele>
                <time>2016-05-01T04:57:11Z</time>
            </trkpt>
            <trkpt lon="101.054783" lat="13.027556">
                <ele>94.000000</ele>
                <time>2016-05-01T04:57:43Z</time>
            </trkpt>
            <trkpt lon="101.057434" lat="13.027317">
                <ele>96.700000</ele>
                <time>2016-05-01T04:58:50Z</time>
            </trkpt>
            <trkpt lon="101.060465" lat="13.028143">
                <ele>104.000000</ele>
                <time>2016-05-01T05:00:31Z</time>
            </trkpt>
            <trkpt lon="101.062982" lat="13.027803">
                <ele>104.900000</ele>
                <time>2016-05-01T05:01:46Z</time>
            </trkpt>
            <trkpt lon="101.063815" lat="13.027963">
                <ele>108.500000</ele>
                <time>2016-05-01T05:02:20Z</time>
            </trkpt>
            <trkpt lon="101.065419" lat="13.027742">
                <ele>116.200000</ele>
                <time>2016-05-01T05:03:00Z</time>
            </trkpt>
            <trkpt lon="101.065868" lat="13.027408">
                <ele>116.600000</ele>
                <time>2016-05-01T05:03:15Z</time>
            </trkpt>
            <trkpt lon="101.066093" lat="13.027565">
                <ele>116.400000</ele>
                <time>2016-05-01T05:03:21Z</time>
            </trkpt>
            <trkpt lon="101.066636" lat="13.028248">
                <ele>115.300000</ele>
                <time>2016-05-01T05:03:35Z</time>
            </trkpt>
            <trkpt lon="101.066927" lat="13.029578">
                <ele>116.600000</ele>
                <time>2016-05-01T05:04:13Z</time>
            </trkpt>
        </trkseg>
    </trk>
</gpx>